sensor_id;sensor_type;location;lat;lon;timestamp;P1;durP1;ratioP1;P2;durP2;ratioP2
29516;SDS011;40993;50.594;8.664;2023-11-21T00:00:16;12.07;;;5.68;;
29516;SDS011;40993;50.594;8.664;2023-11-21T00:02:45;19.10;;;5.75;;
29516;SDS011;40993;50.594;8.664;2023-11-21T00:05:13;10.15;;;5.80;;
29516;SDS011;40993;50.594;8.664;2023-11-21T00:07:42;13.50;;;5.70;;
29516;SDS011;40993;50.594;8.664;2023-11-21T00:10:11;9.77;;;5.13;;
29516;SDS011;40993;50.594;8.664;2023-11-21T00:12:40;11.38;;;4.93;;
29516;SDS011;40993;50.594;8.664;2023-11-21T00:15:09;9.95;;;5.32;;
29516;SDS011;40993;50.594;8.664;2023-11-21T00:17:39;7.18;;;5.30;;
29516;SDS011;40993;50.594;8.664;2023-11-21T00:20:07;8.00;;;5.88;;
29516;SDS011;40993;50.594;8.664;2023-11-21T00:22:39;7.70;;;5.68;;
29516;SDS011;40993;50.594;8.664;2023-11-21T00:25:07;8.05;;;6.18;;
29516;SDS011;40993;50.594;8.664;2023-11-21T00:27:36;10.70;;;6.60;;
29516;SDS011;40993;50.594;8.664;2023-11-21T00:30:04;9.25;;;6.88;;
29516;SDS011;40993;50.594;8.664;2023-11-21T00:32:35;10.25;;;6.82;;
29516;SDS011;40993;50.594;8.664;2023-11-21T00:35:04;12.55;;;8.10;;
29516;SDS011;40993;50.594;8.664;2023-11-21T00:37:33;13.25;;;8.60;;
29516;SDS011;40993;50.594;8.664;2023-11-21T00:40:01;16.20;;;9.52;;
29516;SDS011;40993;50.594;8.664;2023-11-21T00:42:32;17.23;;;11.33;;
29516;SDS011;40993;50.594;8.664;2023-11-21T00:45:00;20.23;;;12.18;;
29516;SDS011;40993;50.594;8.664;2023-11-21T00:47:29;19.70;;;12.88;;
29516;SDS011;40993;50.594;8.664;2023-11-21T00:49:57;28.05;;;15.50;;
29516;SDS011;40993;50.594;8.664;2023-11-21T00:52:27;24.52;;;14.93;;
29516;SDS011;40993;50.594;8.664;2023-11-21T00:54:55;29.02;;;16.30;;
29516;SDS011;40993;50.594;8.664;2023-11-21T00:57:23;30.95;;;17.25;;
29516;SDS011;40993;50.594;8.664;2023-11-21T00:59:51;32.70;;;17.65;;
29516;SDS011;40993;50.594;8.664;2023-11-21T01:02:19;29.40;;;17.70;;
29516;SDS011;40993;50.594;8.664;2023-11-21T01:04:47;37.47;;;18.90;;
29516;SDS011;40993;50.594;8.664;2023-11-21T01:07:15;36.72;;;18.63;;
29516;SDS011;40993;50.594;8.664;2023-11-21T01:09:44;41.38;;;20.63;;
29516;SDS011;40993;50.594;8.664;2023-11-21T01:12:12;42.78;;;20.60;;
29516;SDS011;40993;50.594;8.664;2023-11-21T01:14:39;53.95;;;24.83;;
29516;SDS011;40993;50.594;8.664;2023-11-21T01:17:07;48.85;;;25.45;;
29516;SDS011;40993;50.594;8.664;2023-11-21T01:19:35;55.80;;;26.20;;
29516;SDS011;40993;50.594;8.664;2023-11-21T01:22:03;58.13;;;26.48;;
29516;SDS011;40993;50.594;8.664;2023-11-21T01:24:31;63.05;;;28.50;;
29516;SDS011;40993;50.594;8.664;2023-11-21T01:27:01;58.20;;;29.30;;
29516;SDS011;40993;50.594;8.664;2023-11-21T01:29:28;69.90;;;30.88;;
29516;SDS011;40993;50.594;8.664;2023-11-21T01:31:56;69.75;;;31.10;;
29516;SDS011;40993;50.594;8.664;2023-11-21T01:34:24;74.72;;;32.08;;
29516;SDS011;40993;50.594;8.664;2023-11-21T01:36:52;67.05;;;32.15;;
29516;SDS011;40993;50.594;8.664;2023-11-21T01:39:20;68.03;;;32.20;;
29516;SDS011;40993;50.594;8.664;2023-11-21T01:41:50;79.15;;;33.78;;
29516;SDS011;40993;50.594;8.664;2023-11-21T01:44:19;78.88;;;33.90;;
29516;SDS011;40993;50.594;8.664;2023-11-21T01:46:47;72.85;;;31.70;;
29516;SDS011;40993;50.594;8.664;2023-11-21T01:49:16;72.43;;;32.28;;
29516;SDS011;40993;50.594;8.664;2023-11-21T01:51:45;75.55;;;31.92;;
29516;SDS011;40993;50.594;8.664;2023-11-21T01:54:15;75.63;;;33.00;;
29516;SDS011;40993;50.594;8.664;2023-11-21T01:56:45;73.63;;;32.60;;
29516;SDS011;40993;50.594;8.664;2023-11-21T01:59:14;73.95;;;30.92;;
29516;SDS011;40993;50.594;8.664;2023-11-21T02:01:46;71.45;;;31.27;;
29516;SDS011;40993;50.594;8.664;2023-11-21T02:04:16;62.70;;;27.98;;
29516;SDS011;40993;50.594;8.664;2023-11-21T02:06:45;67.30;;;29.23;;
29516;SDS011;40993;50.594;8.664;2023-11-21T02:09:13;74.65;;;30.27;;
29516;SDS011;40993;50.594;8.664;2023-11-21T02:11:42;83.75;;;31.70;;
29516;SDS011;40993;50.594;8.664;2023-11-21T02:14:10;77.90;;;31.55;;
29516;SDS011;40993;50.594;8.664;2023-11-21T02:16:40;83.30;;;33.30;;
29516;SDS011;40993;50.594;8.664;2023-11-21T02:21:43;94.45;;;34.47;;
29516;SDS011;40993;50.594;8.664;2023-11-21T02:24:13;107.10;;;36.20;;
29516;SDS011;40993;50.594;8.664;2023-11-21T02:26:42;102.65;;;36.53;;
29516;SDS011;40993;50.594;8.664;2023-11-21T02:29:09;102.90;;;34.25;;
29516;SDS011;40993;50.594;8.664;2023-11-21T02:31:39;111.22;;;36.22;;
29516;SDS011;40993;50.594;8.664;2023-11-21T02:34:15;92.00;;;32.40;;
29516;SDS011;40993;50.594;8.664;2023-11-21T02:36:43;89.90;;;30.15;;
29516;SDS011;40993;50.594;8.664;2023-11-21T02:39:11;82.68;;;28.08;;
29516;SDS011;40993;50.594;8.664;2023-11-21T02:41:41;88.60;;;30.35;;
29516;SDS011;40993;50.594;8.664;2023-11-21T02:44:09;84.35;;;27.92;;
29516;SDS011;40993;50.594;8.664;2023-11-21T02:46:37;75.05;;;25.92;;
29516;SDS011;40993;50.594;8.664;2023-11-21T02:49:06;69.85;;;25.63;;
29516;SDS011;40993;50.594;8.664;2023-11-21T02:51:36;63.38;;;24.02;;
29516;SDS011;40993;50.594;8.664;2023-11-21T02:54:05;56.67;;;22.33;;
29516;SDS011;40993;50.594;8.664;2023-11-21T02:56:34;61.95;;;22.13;;
29516;SDS011;40993;50.594;8.664;2023-11-21T02:59:03;59.42;;;21.85;;
29516;SDS011;40993;50.594;8.664;2023-11-21T03:01:31;52.92;;;22.02;;
29516;SDS011;40993;50.594;8.664;2023-11-21T03:03:59;56.53;;;22.77;;
29516;SDS011;40993;50.594;8.664;2023-11-21T03:06:28;57.40;;;21.08;;
29516;SDS011;40993;50.594;8.664;2023-11-21T03:08:55;54.10;;;22.13;;
29516;SDS011;40993;50.594;8.664;2023-11-21T03:11:23;46.80;;;20.75;;
29516;SDS011;40993;50.594;8.664;2023-11-21T03:13:51;43.03;;;19.65;;
29516;SDS011;40993;50.594;8.664;2023-11-21T03:16:20;46.22;;;19.42;;
29516;SDS011;40993;50.594;8.664;2023-11-21T03:18:48;44.97;;;19.45;;
29516;SDS011;40993;50.594;8.664;2023-11-21T03:21:17;35.80;;;17.67;;
29516;SDS011;40993;50.594;8.664;2023-11-21T03:23:45;38.40;;;17.45;;
29516;SDS011;40993;50.594;8.664;2023-11-21T03:26:13;39.40;;;18.95;;
29516;SDS011;40993;50.594;8.664;2023-11-21T03:28:41;40.80;;;18.98;;
29516;SDS011;40993;50.594;8.664;2023-11-21T03:31:08;38.75;;;18.58;;
29516;SDS011;40993;50.594;8.664;2023-11-21T03:33:38;44.22;;;20.02;;
29516;SDS011;40993;50.594;8.664;2023-11-21T03:36:06;44.95;;;20.23;;
29516;SDS011;40993;50.594;8.664;2023-11-21T03:38:35;43.88;;;19.52;;
29516;SDS011;40993;50.594;8.664;2023-11-21T03:41:04;39.50;;;19.33;;
29516;SDS011;40993;50.594;8.664;2023-11-21T03:43:32;40.67;;;18.85;;
29516;SDS011;40993;50.594;8.664;2023-11-21T03:46:00;42.30;;;19.27;;
29516;SDS011;40993;50.594;8.664;2023-11-21T03:48:28;46.17;;;19.02;;
29516;SDS011;40993;50.594;8.664;2023-11-21T03:50:58;47.20;;;20.63;;
29516;SDS011;40993;50.594;8.664;2023-11-21T03:53:25;40.85;;;19.60;;
29516;SDS011;40993;50.594;8.664;2023-11-21T03:55:53;40.58;;;19.30;;
29516;SDS011;40993;50.594;8.664;2023-11-21T03:58:21;38.83;;;18.30;;
29516;SDS011;40993;50.594;8.664;2023-11-21T04:00:49;33.85;;;17.88;;
29516;SDS011;40993;50.594;8.664;2023-11-21T04:03:16;29.65;;;17.30;;
29516;SDS011;40993;50.594;8.664;2023-11-21T04:05:46;25.15;;;14.88;;
29516;SDS011;40993;50.594;8.664;2023-11-21T04:08:15;29.52;;;16.00;;
29516;SDS011;40993;50.594;8.664;2023-11-21T04:10:42;25.65;;;15.13;;
29516;SDS011;40993;50.594;8.664;2023-11-21T04:13:10;27.45;;;15.70;;
29516;SDS011;40993;50.594;8.664;2023-11-21T04:15:38;24.38;;;14.65;;
29516;SDS011;40993;50.594;8.664;2023-11-21T04:18:06;25.55;;;15.50;;
29516;SDS011;40993;50.594;8.664;2023-11-21T04:20:34;25.17;;;14.73;;
29516;SDS011;40993;50.594;8.664;2023-11-21T04:23:02;21.70;;;14.23;;
29516;SDS011;40993;50.594;8.664;2023-11-21T04:25:32;22.35;;;13.98;;
29516;SDS011;40993;50.594;8.664;2023-11-21T04:27:59;23.25;;;14.75;;
29516;SDS011;40993;50.594;8.664;2023-11-21T04:30:27;23.30;;;14.32;;
29516;SDS011;40993;50.594;8.664;2023-11-21T04:32:55;20.98;;;13.25;;
29516;SDS011;40993;50.594;8.664;2023-11-21T04:35:23;23.52;;;13.40;;
29516;SDS011;40993;50.594;8.664;2023-11-21T04:37:50;23.13;;;13.60;;
29516;SDS011;40993;50.594;8.664;2023-11-21T04:40:18;21.92;;;13.80;;
29516;SDS011;40993;50.594;8.664;2023-11-21T04:42:48;22.10;;;13.45;;
29516;SDS011;40993;50.594;8.664;2023-11-21T04:45:16;23.58;;;12.55;;
29516;SDS011;40993;50.594;8.664;2023-11-21T04:47:44;18.60;;;10.95;;
29516;SDS011;40993;50.594;8.664;2023-11-21T04:50:11;19.65;;;11.43;;
29516;SDS011;40993;50.594;8.664;2023-11-21T04:52:39;16.45;;;10.45;;
29516;SDS011;40993;50.594;8.664;2023-11-21T04:55:07;18.08;;;11.15;;
29516;SDS011;40993;50.594;8.664;2023-11-21T04:57:37;19.20;;;11.15;;
29516;SDS011;40993;50.594;8.664;2023-11-21T05:00:07;18.80;;;11.15;;
29516;SDS011;40993;50.594;8.664;2023-11-21T05:02:36;17.85;;;11.15;;
29516;SDS011;40993;50.594;8.664;2023-11-21T05:05:05;17.83;;;11.32;;
29516;SDS011;40993;50.594;8.664;2023-11-21T05:07:34;18.48;;;11.63;;
29516;SDS011;40993;50.594;8.664;2023-11-21T05:10:03;17.40;;;10.52;;
29516;SDS011;40993;50.594;8.664;2023-11-21T05:12:34;15.90;;;10.05;;
29516;SDS011;40993;50.594;8.664;2023-11-21T05:15:04;19.10;;;10.05;;
29516;SDS011;40993;50.594;8.664;2023-11-21T05:17:37;13.40;;;8.45;;
29516;SDS011;40993;50.594;8.664;2023-11-21T05:20:09;16.17;;;8.83;;
29516;SDS011;40993;50.594;8.664;2023-11-21T05:22:38;14.43;;;8.63;;
29516;SDS011;40993;50.594;8.664;2023-11-21T05:25:06;12.85;;;7.93;;
29516;SDS011;40993;50.594;8.664;2023-11-21T05:27:35;14.88;;;8.52;;
29516;SDS011;40993;50.594;8.664;2023-11-21T05:30:03;13.23;;;8.90;;
29516;SDS011;40993;50.594;8.664;2023-11-21T05:32:32;12.93;;;7.85;;
29516;SDS011;40993;50.594;8.664;2023-11-21T05:35:02;15.23;;;8.70;;
29516;SDS011;40993;50.594;8.664;2023-11-21T05:37:30;14.75;;;7.65;;
29516;SDS011;40993;50.594;8.664;2023-11-21T05:39:58;14.02;;;8.57;;
29516;SDS011;40993;50.594;8.664;2023-11-21T05:42:26;14.13;;;8.82;;
29516;SDS011;40993;50.594;8.664;2023-11-21T05:44:54;11.85;;;7.53;;
29516;SDS011;40993;50.594;8.664;2023-11-21T05:47:25;13.02;;;8.50;;
29516;SDS011;40993;50.594;8.664;2023-11-21T05:49:54;14.75;;;9.38;;
29516;SDS011;40993;50.594;8.664;2023-11-21T05:52:23;15.43;;;9.75;;
29516;SDS011;40993;50.594;8.664;2023-11-21T05:54:51;16.08;;;9.40;;
29516;SDS011;40993;50.594;8.664;2023-11-21T05:57:18;20.52;;;9.70;;
29516;SDS011;40993;50.594;8.664;2023-11-21T05:59:46;18.20;;;9.80;;
29516;SDS011;40993;50.594;8.664;2023-11-21T06:02:14;17.63;;;10.35;;
29516;SDS011;40993;50.594;8.664;2023-11-21T06:04:42;19.33;;;10.52;;
29516;SDS011;40993;50.594;8.664;2023-11-21T06:07:10;16.05;;;9.80;;
29516;SDS011;40993;50.594;8.664;2023-11-21T06:09:39;16.95;;;10.35;;
29516;SDS011;40993;50.594;8.664;2023-11-21T06:12:07;19.77;;;10.85;;
29516;SDS011;40993;50.594;8.664;2023-11-21T06:14:34;17.38;;;9.93;;
29516;SDS011;40993;50.594;8.664;2023-11-21T06:17:03;20.08;;;10.20;;
29516;SDS011;40993;50.594;8.664;2023-11-21T06:19:31;17.60;;;10.20;;
29516;SDS011;40993;50.594;8.664;2023-11-21T06:21:59;19.13;;;9.90;;
29516;SDS011;40993;50.594;8.664;2023-11-21T06:24:27;16.00;;;9.57;;
29516;SDS011;40993;50.594;8.664;2023-11-21T06:26:56;17.60;;;10.18;;
29516;SDS011;40993;50.594;8.664;2023-11-21T06:29:25;18.20;;;10.20;;
29516;SDS011;40993;50.594;8.664;2023-11-21T06:31:53;17.05;;;9.90;;
29516;SDS011;40993;50.594;8.664;2023-11-21T06:34:21;16.58;;;9.98;;
29516;SDS011;40993;50.594;8.664;2023-11-21T06:36:49;15.55;;;9.57;;
29516;SDS011;40993;50.594;8.664;2023-11-21T06:39:17;16.95;;;9.93;;
29516;SDS011;40993;50.594;8.664;2023-11-21T06:41:48;14.48;;;9.13;;
29516;SDS011;40993;50.594;8.664;2023-11-21T06:44:18;14.45;;;9.25;;
29516;SDS011;40993;50.594;8.664;2023-11-21T06:46:46;14.02;;;8.65;;
29516;SDS011;40993;50.594;8.664;2023-11-21T06:49:15;15.38;;;8.60;;
29516;SDS011;40993;50.594;8.664;2023-11-21T06:51:43;15.10;;;9.60;;
29516;SDS011;40993;50.594;8.664;2023-11-21T06:54:11;15.15;;;9.13;;
29516;SDS011;40993;50.594;8.664;2023-11-21T06:56:39;13.60;;;9.00;;
29516;SDS011;40993;50.594;8.664;2023-11-21T06:59:07;14.40;;;8.57;;
29516;SDS011;40993;50.594;8.664;2023-11-21T07:01:36;13.35;;;8.70;;
29516;SDS011;40993;50.594;8.664;2023-11-21T07:04:05;14.98;;;9.27;;
29516;SDS011;40993;50.594;8.664;2023-11-21T07:06:33;14.77;;;9.48;;
29516;SDS011;40993;50.594;8.664;2023-11-21T07:09:02;13.50;;;8.63;;
29516;SDS011;40993;50.594;8.664;2023-11-21T07:11:30;15.25;;;8.85;;
29516;SDS011;40993;50.594;8.664;2023-11-21T07:13:59;15.68;;;9.20;;
29516;SDS011;40993;50.594;8.664;2023-11-21T07:16:29;15.02;;;8.70;;
29516;SDS011;40993;50.594;8.664;2023-11-21T07:18:59;13.65;;;8.77;;
29516;SDS011;40993;50.594;8.664;2023-11-21T07:21:27;13.75;;;8.63;;
29516;SDS011;40993;50.594;8.664;2023-11-21T07:23:55;16.05;;;9.25;;
29516;SDS011;40993;50.594;8.664;2023-11-21T07:26:22;15.75;;;8.90;;
29516;SDS011;40993;50.594;8.664;2023-11-21T07:28:51;15.05;;;9.23;;
29516;SDS011;40993;50.594;8.664;2023-11-21T07:31:19;14.63;;;8.98;;
29516;SDS011;40993;50.594;8.664;2023-11-21T07:33:49;13.52;;;8.60;;
29516;SDS011;40993;50.594;8.664;2023-11-21T07:36:18;15.65;;;9.55;;
29516;SDS011;40993;50.594;8.664;2023-11-21T07:38:46;20.23;;;9.15;;
29516;SDS011;40993;50.594;8.664;2023-11-21T07:41:14;17.38;;;9.50;;
29516;SDS011;40993;50.594;8.664;2023-11-21T07:43:56;22.67;;;9.93;;
29516;SDS011;40993;50.594;8.664;2023-11-21T07:46:25;22.05;;;9.38;;
29516;SDS011;40993;50.594;8.664;2023-11-21T07:48:54;26.95;;;10.52;;
29516;SDS011;40993;50.594;8.664;2023-11-21T07:51:23;26.40;;;10.80;;
29516;SDS011;40993;50.594;8.664;2023-11-21T07:53:51;27.27;;;11.80;;
29516;SDS011;40993;50.594;8.664;2023-11-21T07:56:18;29.35;;;12.68;;
29516;SDS011;40993;50.594;8.664;2023-11-21T07:58:46;25.90;;;11.75;;
29516;SDS011;40993;50.594;8.664;2023-11-21T08:01:16;31.33;;;12.40;;
29516;SDS011;40993;50.594;8.664;2023-11-21T08:03:44;33.40;;;12.65;;
29516;SDS011;40993;50.594;8.664;2023-11-21T08:06:12;32.03;;;13.45;;
29516;SDS011;40993;50.594;8.664;2023-11-21T08:08:41;35.90;;;13.52;;
29516;SDS011;40993;50.594;8.664;2023-11-21T08:11:09;36.88;;;13.40;;
29516;SDS011;40993;50.594;8.664;2023-11-21T08:13:37;34.70;;;14.00;;
29516;SDS011;40993;50.594;8.664;2023-11-21T08:16:05;36.97;;;14.13;;
29516;SDS011;40993;50.594;8.664;2023-11-21T08:18:34;36.65;;;13.82;;
29516;SDS011;40993;50.594;8.664;2023-11-21T08:21:02;39.15;;;13.82;;
29516;SDS011;40993;50.594;8.664;2023-11-21T08:23:31;34.42;;;14.80;;
29516;SDS011;40993;50.594;8.664;2023-11-21T08:26:00;39.15;;;15.05;;
29516;SDS011;40993;50.594;8.664;2023-11-21T08:28:32;41.13;;;15.33;;
29516;SDS011;40993;50.594;8.664;2023-11-21T08:31:00;38.83;;;15.55;;
29516;SDS011;40993;50.594;8.664;2023-11-21T08:33:28;35.47;;;15.00;;
29516;SDS011;40993;50.594;8.664;2023-11-21T08:35:55;36.85;;;13.95;;
29516;SDS011;40993;50.594;8.664;2023-11-21T08:38:23;41.05;;;15.90;;
29516;SDS011;40993;50.594;8.664;2023-11-21T08:40:51;37.35;;;15.35;;
29516;SDS011;40993;50.594;8.664;2023-11-21T08:43:20;37.05;;;15.65;;
29516;SDS011;40993;50.594;8.664;2023-11-21T08:45:48;40.25;;;15.45;;
29516;SDS011;40993;50.594;8.664;2023-11-21T08:48:16;35.85;;;14.60;;
29516;SDS011;40993;50.594;8.664;2023-11-21T08:50:43;33.92;;;12.88;;
29516;SDS011;40993;50.594;8.664;2023-11-21T08:53:11;23.88;;;10.18;;
29516;SDS011;40993;50.594;8.664;2023-11-21T08:55:39;24.95;;;9.75;;
29516;SDS011;40993;50.594;8.664;2023-11-21T08:58:07;17.25;;;7.75;;
29516;SDS011;40993;50.594;8.664;2023-11-21T09:00:36;17.80;;;8.25;;
29516;SDS011;40993;50.594;8.664;2023-11-21T09:03:04;15.30;;;7.47;;
29516;SDS011;40993;50.594;8.664;2023-11-21T09:05:37;13.07;;;6.43;;
29516;SDS011;40993;50.594;8.664;2023-11-21T09:08:05;14.68;;;7.65;;
29516;SDS011;40993;50.594;8.664;2023-11-21T09:10:34;15.93;;;6.82;;
29516;SDS011;40993;50.594;8.664;2023-11-21T09:13:03;21.33;;;8.68;;
29516;SDS011;40993;50.594;8.664;2023-11-21T09:15:31;13.13;;;7.40;;
29516;SDS011;40993;50.594;8.664;2023-11-21T09:18:00;12.80;;;5.55;;
29516;SDS011;40993;50.594;8.664;2023-11-21T09:20:28;12.38;;;6.18;;
29516;SDS011;40993;50.594;8.664;2023-11-21T09:22:56;11.80;;;6.07;;
29516;SDS011;40993;50.594;8.664;2023-11-21T09:25:24;16.95;;;6.10;;
29516;SDS011;40993;50.594;8.664;2023-11-21T09:27:51;16.17;;;6.68;;
29516;SDS011;40993;50.594;8.664;2023-11-21T09:30:19;12.23;;;5.97;;
29516;SDS011;40993;50.594;8.664;2023-11-21T09:32:47;13.93;;;7.15;;
29516;SDS011;40993;50.594;8.664;2023-11-21T09:35:17;14.70;;;6.60;;
29516;SDS011;40993;50.594;8.664;2023-11-21T09:37:45;13.73;;;6.45;;
29516;SDS011;40993;50.594;8.664;2023-11-21T09:40:15;11.45;;;5.35;;
29516;SDS011;40993;50.594;8.664;2023-11-21T09:42:49;13.60;;;5.57;;
29516;SDS011;40993;50.594;8.664;2023-11-21T09:45:23;15.25;;;5.63;;
29516;SDS011;40993;50.594;8.664;2023-11-21T09:47:53;13.13;;;6.10;;
29516;SDS011;40993;50.594;8.664;2023-11-21T09:50:23;10.93;;;6.30;;
29516;SDS011;40993;50.594;8.664;2023-11-21T09:52:54;11.90;;;6.57;;
29516;SDS011;40993;50.594;8.664;2023-11-21T09:55:27;9.07;;;5.22;;
29516;SDS011;40993;50.594;8.664;2023-11-21T09:57:56;8.75;;;5.25;;
29516;SDS011;40993;50.594;8.664;2023-11-21T10:00:24;6.90;;;4.70;;
29516;SDS011;40993;50.594;8.664;2023-11-21T10:02:54;11.63;;;5.00;;
29516;SDS011;40993;50.594;8.664;2023-11-21T10:05:24;8.05;;;4.50;;
29516;SDS011;40993;50.594;8.664;2023-11-21T10:07:55;7.30;;;4.25;;
29516;SDS011;40993;50.594;8.664;2023-11-21T10:10:24;9.88;;;6.07;;
29516;SDS011;40993;50.594;8.664;2023-11-21T10:12:53;8.35;;;4.40;;
29516;SDS011;40993;50.594;8.664;2023-11-21T10:15:23;6.57;;;3.88;;
29516;SDS011;40993;50.594;8.664;2023-11-21T10:17:51;8.82;;;4.70;;
29516;SDS011;40993;50.594;8.664;2023-11-21T10:20:20;5.65;;;4.05;;
29516;SDS011;40993;50.594;8.664;2023-11-21T10:22:49;5.38;;;3.63;;
29516;SDS011;40993;50.594;8.664;2023-11-21T10:25:17;5.60;;;2.78;;
29516;SDS011;40993;50.594;8.664;2023-11-21T10:27:47;5.05;;;3.90;;
29516;SDS011;40993;50.594;8.664;2023-11-21T10:30:17;5.82;;;3.40;;
29516;SDS011;40993;50.594;8.664;2023-11-21T10:32:45;5.35;;;3.65;;
29516;SDS011;40993;50.594;8.664;2023-11-21T10:35:13;3.58;;;2.50;;
29516;SDS011;40993;50.594;8.664;2023-11-21T10:37:41;4.50;;;2.55;;
29516;SDS011;40993;50.594;8.664;2023-11-21T10:40:11;2.58;;;2.00;;
29516;SDS011;40993;50.594;8.664;2023-11-21T10:42:39;3.33;;;2.22;;
29516;SDS011;40993;50.594;8.664;2023-11-21T10:45:08;3.08;;;2.10;;
29516;SDS011;40993;50.594;8.664;2023-11-21T10:47:40;4.45;;;2.10;;
29516;SDS011;40993;50.594;8.664;2023-11-21T10:50:08;3.70;;;1.92;;
29516;SDS011;40993;50.594;8.664;2023-11-21T10:52:39;4.88;;;2.42;;
29516;SDS011;40993;50.594;8.664;2023-11-21T10:57:58;4.63;;;2.13;;
29516;SDS011;40993;50.594;8.664;2023-11-21T11:00:28;3.70;;;2.20;;
29516;SDS011;40993;50.594;8.664;2023-11-21T11:02:56;3.78;;;2.55;;
29516;SDS011;40993;50.594;8.664;2023-11-21T11:05:26;6.15;;;3.10;;
29516;SDS011;40993;50.594;8.664;2023-11-21T11:07:58;6.93;;;3.55;;
29516;SDS011;40993;50.594;8.664;2023-11-21T11:10:28;5.30;;;3.20;;
29516;SDS011;40993;50.594;8.664;2023-11-21T11:12:57;7.35;;;3.53;;
29516;SDS011;40993;50.594;8.664;2023-11-21T11:15:25;5.70;;;3.47;;
29516;SDS011;40993;50.594;8.664;2023-11-21T11:17:53;5.32;;;3.42;;
29516;SDS011;40993;50.594;8.664;2023-11-21T11:20:25;5.00;;;3.28;;
29516;SDS011;40993;50.594;8.664;2023-11-21T11:22:59;6.13;;;4.05;;
29516;SDS011;40993;50.594;8.664;2023-11-21T11:25:52;4.53;;;3.45;;
29516;SDS011;40993;50.594;8.664;2023-11-21T11:28:27;6.13;;;3.90;;
29516;SDS011;40993;50.594;8.664;2023-11-21T11:30:59;6.05;;;3.40;;
29516;SDS011;40993;50.594;8.664;2023-11-21T11:33:33;7.82;;;3.60;;
29516;SDS011;40993;50.594;8.664;2023-11-21T11:36:06;6.18;;;3.78;;
29516;SDS011;40993;50.594;8.664;2023-11-21T11:38:37;5.47;;;3.83;;
29516;SDS011;40993;50.594;8.664;2023-11-21T11:41:07;5.53;;;3.60;;
29516;SDS011;40993;50.594;8.664;2023-11-21T11:43:35;8.32;;;4.50;;
29516;SDS011;40993;50.594;8.664;2023-11-21T11:46:11;7.13;;;4.07;;
29516;SDS011;40993;50.594;8.664;2023-11-21T11:48:39;7.40;;;4.20;;
29516;SDS011;40993;50.594;8.664;2023-11-21T11:51:10;6.03;;;4.57;;
29516;SDS011;40993;50.594;8.664;2023-11-21T11:53:40;6.15;;;4.18;;
29516;SDS011;40993;50.594;8.664;2023-11-21T11:56:26;8.32;;;4.18;;
29516;SDS011;40993;50.594;8.664;2023-11-21T11:58:57;7.88;;;4.00;;
29516;SDS011;40993;50.594;8.664;2023-11-21T12:01:26;6.50;;;3.65;;
29516;SDS011;40993;50.594;8.664;2023-11-21T12:06:59;6.88;;;4.15;;
29516;SDS011;40993;50.594;8.664;2023-11-21T12:09:29;5.00;;;3.33;;
29516;SDS011;40993;50.594;8.664;2023-11-21T12:12:00;4.80;;;3.40;;
29516;SDS011;40993;50.594;8.664;2023-11-21T12:14:28;6.05;;;4.13;;
29516;SDS011;40993;50.594;8.664;2023-11-21T12:16:56;5.47;;;3.92;;
29516;SDS011;40993;50.594;8.664;2023-11-21T12:19:24;7.03;;;4.10;;
29516;SDS011;40993;50.594;8.664;2023-11-21T12:21:52;6.80;;;4.50;;
29516;SDS011;40993;50.594;8.664;2023-11-21T12:24:22;6.22;;;3.83;;
29516;SDS011;40993;50.594;8.664;2023-11-21T12:26:50;7.00;;;4.45;;
29516;SDS011;40993;50.594;8.664;2023-11-21T12:29:19;5.95;;;3.90;;
29516;SDS011;40993;50.594;8.664;2023-11-21T12:31:48;6.13;;;4.25;;
29516;SDS011;40993;50.594;8.664;2023-11-21T12:34:17;5.80;;;3.95;;
29516;SDS011;40993;50.594;8.664;2023-11-21T12:36:45;6.53;;;3.70;;
29516;SDS011;40993;50.594;8.664;2023-11-21T12:39:13;7.55;;;3.28;;
29516;SDS011;40993;50.594;8.664;2023-11-21T12:41:41;4.90;;;3.28;;
29516;SDS011;40993;50.594;8.664;2023-11-21T12:44:09;6.55;;;3.42;;
29516;SDS011;40993;50.594;8.664;2023-11-21T12:46:43;5.38;;;2.42;;
29516;SDS011;40993;50.594;8.664;2023-11-21T12:49:12;6.10;;;3.83;;
29516;SDS011;40993;50.594;8.664;2023-11-21T12:51:44;7.60;;;3.95;;
29516;SDS011;40993;50.594;8.664;2023-11-21T12:54:13;8.38;;;3.80;;
29516;SDS011;40993;50.594;8.664;2023-11-21T12:56:41;7.63;;;3.83;;
29516;SDS011;40993;50.594;8.664;2023-11-21T12:59:13;7.57;;;3.88;;
29516;SDS011;40993;50.594;8.664;2023-11-21T13:01:44;7.40;;;4.65;;
29516;SDS011;40993;50.594;8.664;2023-11-21T13:04:12;7.88;;;4.45;;
29516;SDS011;40993;50.594;8.664;2023-11-21T13:06:40;8.88;;;4.63;;
29516;SDS011;40993;50.594;8.664;2023-11-21T13:09:08;9.55;;;5.00;;
29516;SDS011;40993;50.594;8.664;2023-11-21T13:11:37;8.07;;;4.90;;
29516;SDS011;40993;50.594;8.664;2023-11-21T13:14:07;9.45;;;5.55;;
29516;SDS011;40993;50.594;8.664;2023-11-21T13:16:37;7.25;;;5.50;;
29516;SDS011;40993;50.594;8.664;2023-11-21T13:19:07;8.93;;;5.32;;
29516;SDS011;40993;50.594;8.664;2023-11-21T13:21:35;7.25;;;5.47;;
29516;SDS011;40993;50.594;8.664;2023-11-21T13:24:03;7.95;;;5.57;;
29516;SDS011;40993;50.594;8.664;2023-11-21T13:26:31;9.75;;;6.20;;
29516;SDS011;40993;50.594;8.664;2023-11-21T13:28:59;7.95;;;5.35;;
29516;SDS011;40993;50.594;8.664;2023-11-21T13:31:27;7.03;;;5.10;;
29516;SDS011;40993;50.594;8.664;2023-11-21T13:33:59;7.20;;;5.35;;
29516;SDS011;40993;50.594;8.664;2023-11-21T13:36:33;8.52;;;5.35;;
29516;SDS011;40993;50.594;8.664;2023-11-21T13:39:02;7.60;;;4.80;;
29516;SDS011;40993;50.594;8.664;2023-11-21T13:41:34;9.38;;;6.05;;
29516;SDS011;40993;50.594;8.664;2023-11-21T13:44:04;8.93;;;6.65;;
29516;SDS011;40993;50.594;8.664;2023-11-21T13:46:42;8.45;;;5.63;;
29516;SDS011;40993;50.594;8.664;2023-11-21T13:49:11;12.10;;;6.93;;
29516;SDS011;40993;50.594;8.664;2023-11-21T13:51:41;11.60;;;6.90;;
29516;SDS011;40993;50.594;8.664;2023-11-21T13:54:11;11.50;;;6.65;;
29516;SDS011;40993;50.594;8.664;2023-11-21T13:56:39;10.63;;;6.88;;
29516;SDS011;40993;50.594;8.664;2023-11-21T13:59:07;12.65;;;7.88;;
29516;SDS011;40993;50.594;8.664;2023-11-21T14:01:44;12.40;;;7.47;;
29516;SDS011;40993;50.594;8.664;2023-11-21T14:04:21;13.52;;;7.85;;
29516;SDS011;40993;50.594;8.664;2023-11-21T14:07:06;16.92;;;8.13;;
29516;SDS011;40993;50.594;8.664;2023-11-21T14:09:48;12.63;;;7.43;;
29516;SDS011;40993;50.594;8.664;2023-11-21T14:12:16;10.80;;;7.85;;
29516;SDS011;40993;50.594;8.664;2023-11-21T14:14:44;13.73;;;8.52;;
29516;SDS011;40993;50.594;8.664;2023-11-21T14:17:13;13.68;;;8.65;;
29516;SDS011;40993;50.594;8.664;2023-11-21T14:19:41;14.52;;;8.60;;
29516;SDS011;40993;50.594;8.664;2023-11-21T14:22:12;16.08;;;9.13;;
29516;SDS011;40993;50.594;8.664;2023-11-21T14:24:40;13.90;;;9.45;;
29516;SDS011;40993;50.594;8.664;2023-11-21T14:27:10;15.40;;;10.00;;
29516;SDS011;40993;50.594;8.664;2023-11-21T14:29:38;14.80;;;10.05;;
29516;SDS011;40993;50.594;8.664;2023-11-21T14:32:09;16.73;;;11.10;;
29516;SDS011;40993;50.594;8.664;2023-11-21T14:34:37;16.13;;;11.30;;
29516;SDS011;40993;50.594;8.664;2023-11-21T14:37:07;23.83;;;12.63;;
29516;SDS011;40993;50.594;8.664;2023-11-21T14:39:36;20.98;;;13.57;;
29516;SDS011;40993;50.594;8.664;2023-11-21T14:42:09;24.52;;;15.57;;
29516;SDS011;40993;50.594;8.664;2023-11-21T14:44:37;26.45;;;16.98;;
29516;SDS011;40993;50.594;8.664;2023-11-21T14:47:07;27.85;;;17.30;;
29516;SDS011;40993;50.594;8.664;2023-11-21T14:49:41;29.23;;;19.08;;
29516;SDS011;40993;50.594;8.664;2023-11-21T14:52:19;27.90;;;17.90;;